VOBZ/VGA METAR and TAF weather

Enter ICAO airport designator
Station Type Date Time Source
VOBZ METAR 2019/12/13 03:00 UTC NOAA

VOBZ 130300Z 05004KT 4000 BR NSC 24/20 Q1015 NOSIG


Station Type Date Time Source
VOBZ Decoded METAR 2019/12/13 03:00 UTC NOAA

Vijayawada / Gannavaram, India (VOBZ) 16-32N 080-48E 24M
Dec 12, 2019 - 10:00 PM EST / 2019.12.13 0300 UTC
Wind: from the NE (050 degrees) at 5 MPH (4 KT):0
Visibility: 2 mile(s):0
Weather: mist
Temperature: 75 F (24 C)
Dew Point: 68 F (20 C)
Relative Humidity: 78%
Pressure (altimeter): 29.97 in. Hg (1015 hPa)
ob: VOBZ 130300Z 05004KT 4000 BR NSC 24/20 Q1015 NOSIG
cycle: 3

Station Type Date Time Source
VOBZ TAF 2019/10/27 00:00 UTC NOAA

TAF VOBZ 272300Z 2800/2809 11006KT 3000 BR SCT015 BKN100
TEMPO 2800/2803 VRB05KT 1500 TSRA BKN010 FEW030CB
BECMG 2805/2807 10010KT 6000 SCT015 SCT025

Example: see airport list